Time;durP1;ratioP1;P1;durP2;ratioP2;P2;SDS_P1;SDS_P2;PMS_P1;PMS_P2;Temp;Humidity;BMP_temperature;BMP_pressure;BME280_temperature;BME280_humidity;BME280_pressure;Samples;Min_cycle;Max_cycle;Signal;HPM_P1;HPM_P2
2024/03/12 00:00:13;;;;;;;;;;;8.10;99.90;;;;;;2068202;28;20047;-75
2024/03/12 00:01:19;;;;;;;;;;;8.10;99.90;;;;;;2068416;28;19917;-75
2024/03/12 00:02:20;;;;;;;;;;;8.10;99.90;;;;;;2067979;28;19997;-75
2024/03/12 00:03:20;;;;;;;;;;;8.10;99.90;;;;;;2069128;28;19914;-75
2024/03/12 00:04:22;;;;;;;;;;;8.10;99.90;;;;;;2068259;28;20460;-75
2024/03/12 00:05:22;;;;;;;;;;;8.10;99.90;;;;;;2068339;28;20539;-75
2024/03/12 00:06:23;;;;;;;;;;;8.10;99.90;;;;;;2068444;28;20016;-75
2024/03/12 00:07:23;;;;;;;;;;;8.00;99.90;;;;;;2068286;28;19918;-76
2024/03/12 00:08:24;;;;;;;;;;;8.00;99.90;;;;;;2068951;28;19960;-76
2024/03/12 00:09:26;;;;;;;;;;;8.00;99.90;;;;;;2069132;28;20387;-76
2024/03/12 00:10:27;;;;;;;;;;;7.90;99.90;;;;;;2069174;28;19932;-77
2024/03/12 00:11:28;;;;;;;;;;;8.00;99.90;;;;;;2068135;28;19917;-76
2024/03/12 00:12:28;;;;;;;;;;;8.00;99.90;;;;;;2068264;28;19917;-75
2024/03/12 00:13:29;;;;;;;;;;;8.00;99.90;;;;;;2068944;28;19957;-76
2024/03/12 00:14:33;;;;;;;;;;;8.00;99.90;;;;;;2068269;28;19953;-75
2024/03/12 00:15:36;;;;;;;;;;;8.00;99.90;;;;;;2068247;28;19917;-75
2024/03/12 00:16:40;;;;;;;;;;;8.00;99.90;;;;;;2067872;28;20386;-76
2024/03/12 00:17:41;;;;;;;;;;;8.00;99.90;;;;;;2060567;28;20012;-76
2024/03/12 00:18:41;;;;;;;;;;;8.00;99.90;;;;;;2068185;28;19917;-76
2024/03/12 00:19:42;;;;;;;;;;;8.10;99.90;;;;;;2060102;28;19918;-75
2024/03/12 00:20:44;;;;;;;;;;;8.10;99.90;;;;;;2067934;28;19925;-75
2024/03/12 00:21:45;;;;;;;;;;;8.00;99.90;;;;;;2068653;28;19914;-75
2024/03/12 00:22:47;;;;;;;;;;;8.00;99.90;;;;;;2068775;28;19917;-75
2024/03/12 00:23:48;;;;;;;;;;;8.00;99.90;;;;;;2068770;28;19918;-75
2024/03/12 00:24:49;;;;;;;;;;;8.10;99.90;;;;;;2068790;28;19960;-75
2024/03/12 00:25:50;;;;;;;;;;;8.10;99.90;;;;;;2068882;28;19913;-75
2024/03/12 00:26:50;;;;;;;;;;;8.10;99.90;;;;;;2067990;28;20360;-75
2024/03/12 00:27:51;;;;;;;;;;;8.10;99.90;;;;;;2068062;28;19944;-75
2024/03/12 00:28:52;;;;;;;;;;;8.10;99.90;;;;;;2068161;28;19918;-75
2024/03/12 00:29:53;;;;;;;;;;;8.10;99.90;;;;;;2068144;28;20032;-75
2024/03/12 00:30:54;;;;;;;;;;;8.10;99.90;;;;;;2067813;28;20405;-75
2024/03/12 00:31:55;;;;;;;;;;;8.10;99.90;;;;;;2057579;28;19964;-74
2024/03/12 00:32:59;;;;;;;;;;;8.10;99.90;;;;;;2059981;28;19980;-75
2024/03/12 00:34:00;;;;;;;;;;;8.10;99.90;;;;;;2068429;28;19921;-75
2024/03/12 00:35:01;;;;;;;;;;;8.10;99.90;;;;;;2068114;28;19914;-75
2024/03/12 00:36:01;;;;;;;;;;;8.10;99.90;;;;;;2068195;28;19922;-75
2024/03/12 00:37:02;;;;;;;;;;;8.10;99.90;;;;;;2068070;28;20093;-75
2024/03/12 00:38:04;;;;;;;;;;;8.10;99.90;;;;;;2060007;28;19913;-75
2024/03/12 00:39:04;;;;;;;;;;;8.10;99.90;;;;;;2067943;28;19913;-75
2024/03/12 00:40:05;;;;;;;;;;;8.10;99.90;;;;;;2068917;28;20016;-75
2024/03/12 00:41:06;;;;;;;;;;;8.00;99.90;;;;;;2068686;28;20327;-75
2024/03/12 00:42:06;;;;;;;;;;;8.00;99.90;;;;;;2068682;28;20316;-75
2024/03/12 00:43:08;;;;;;;;;;;8.00;99.90;;;;;;2068794;28;20447;-75
2024/03/12 00:44:09;;;;;;;;;;;8.00;99.90;;;;;;2068055;28;19928;-75
2024/03/12 00:45:13;;;;;;;;;;;8.00;99.90;;;;;;2068059;28;19977;-75
2024/03/12 00:46:13;;;;;;;;;;;8.00;99.90;;;;;;2072203;28;19962;-75
2024/03/12 00:47:14;;;;;;;;;;;8.00;99.90;;;;;;2068542;28;19960;-75
2024/03/12 00:48:15;;;;;;;;;;;7.90;99.90;;;;;;2068091;28;19914;-75
2024/03/12 00:49:16;;;;;;;;;;;7.90;99.90;;;;;;2068106;28;19917;-76
2024/03/12 00:50:16;;;;;;;;;;;7.90;99.90;;;;;;2067733;28;19917;-75
2024/03/12 00:51:18;;;;;;;;;;;7.90;99.90;;;;;;2064186;28;19925;-76
2024/03/12 00:52:18;;;;;;;;;;;7.90;99.90;;;;;;2060134;28;20423;-76
2024/03/12 00:53:19;;;;;;;;;;;7.90;99.90;;;;;;2068734;28;19952;-76
2024/03/12 00:54:19;;;;;;;;;;;7.90;99.90;;;;;;2068113;28;19913;-73
2024/03/12 00:55:20;;;;;;;;;;;7.90;99.90;;;;;;2063809;28;20190;-75
2024/03/12 00:56:21;;;;;;;;;;;7.90;99.90;;;;;;2063585;28;19920;-76
2024/03/12 00:57:22;;;;;;;;;;;7.90;99.90;;;;;;2067774;28;20374;-75
2024/03/12 00:58:23;;;;;;;;;;;7.90;99.90;;;;;;2067966;28;19913;-76
2024/03/12 00:59:24;;;;;;;;;;;7.90;99.90;;;;;;2059903;28;19918;-75
2024/03/12 01:00:34;;;;;;;;;;;7.90;99.90;;;;;;2068123;28;20027;-76
2024/03/12 01:01:34;;;;;;;;;;;7.90;99.90;;;;;;2066079;28;20272;-75
2024/03/12 01:02:37;;;;;;;;;;;7.90;99.90;;;;;;2065893;28;19972;-76
2024/03/12 01:03:38;;;;;;;;;;;7.90;99.90;;;;;;2068010;28;20404;-76
2024/03/12 01:04:39;;;;;;;;;;;7.80;99.90;;;;;;2060111;28;19924;-75
2024/03/12 01:05:39;;;;;;;;;;;7.80;99.90;;;;;;2067911;28;20366;-75
2024/03/12 01:06:39;;;;;;;;;;;7.80;99.90;;;;;;2068578;28;19952;-76
2024/03/12 01:07:40;;;;;;;;;;;7.70;99.90;;;;;;2068430;28;19913;-75
2024/03/12 01:08:42;;;;;;;;;;;7.70;99.90;;;;;;2068119;28;19921;-75
2024/03/12 01:09:44;;;;;;;;;;;7.70;99.90;;;;;;2059791;28;19913;-76
2024/03/12 01:10:45;;;;;;;;;;;7.70;99.90;;;;;;2067634;28;19921;-75
2024/03/12 01:11:46;;;;;;;;;;;7.80;99.90;;;;;;2065391;28;19940;-76
2024/03/12 01:12:53;;;;;;;;;;;7.80;99.90;;;;;;2065560;28;19913;-75
2024/03/12 01:13:54;;;;;;;;;;;7.80;99.90;;;;;;2067927;28;20016;-75
2024/03/12 01:14:54;;;;;;;;;;;7.70;99.90;;;;;;2067625;28;19913;-75
2024/03/12 01:15:55;;;;;;;;;;;7.80;99.90;;;;;;2068131;28;20005;-75
2024/03/12 01:16:55;;;;;;;;;;;7.80;99.90;;;;;;2067734;28;19964;-75
2024/03/12 01:17:56;;;;;;;;;;;7.80;99.90;;;;;;2059478;28;19922;-75
2024/03/12 01:18:57;;;;;;;;;;;7.80;99.90;;;;;;2068062;28;19991;-75
2024/03/12 01:19:58;;;;;;;;;;;7.80;99.90;;;;;;2075843;28;19924;-75
2024/03/12 01:20:58;;;;;;;;;;;7.80;99.90;;;;;;2067777;28;20480;-76
2024/03/12 01:21:59;;;;;;;;;;;7.70;99.90;;;;;;2067588;28;19913;-75
2024/03/12 01:23:00;;;;;;;;;;;7.70;99.90;;;;;;2067670;28;19913;-76
2024/03/12 01:24:02;;;;;;;;;;;7.70;99.90;;;;;;2065756;28;19925;-75
2024/03/12 01:25:03;;;;;;;;;;;7.70;99.90;;;;;;2068346;28;19932;-75
2024/03/12 01:26:06;;;;;;;;;;;7.70;99.90;;;;;;2068659;28;19921;-75
2024/03/12 01:27:07;;;;;;;;;;;7.70;99.90;;;;;;2068364;28;20446;-76
2024/03/12 01:28:10;;;;;;;;;;;7.70;99.90;;;;;;2068178;28;19944;-75
2024/03/12 01:29:10;;;;;;;;;;;7.60;99.90;;;;;;2068241;28;19918;-75
2024/03/12 01:30:14;;;;;;;;;;;7.70;99.90;;;;;;2068379;28;19914;-79
2024/03/12 01:31:15;;;;;;;;;;;7.60;99.90;;;;;;2066064;28;20284;-75
2024/03/12 01:32:15;;;;;;;;;;;7.60;99.90;;;;;;2066470;28;19950;-78
2024/03/12 01:33:18;;;;;;;;;;;7.60;99.90;;;;;;2067520;28;20382;-79
2024/03/12 01:34:18;;;;;;;;;;;7.60;99.90;;;;;;2067741;28;19921;-76
2024/03/12 01:35:24;;;;;;;;;;;7.60;99.90;;;;;;2059643;28;19910;-76
2024/03/12 01:36:34;;;;;;;;;;;7.60;99.90;;;;;;2067639;28;20028;-76
2024/03/12 01:37:35;;;;;;;;;;;7.60;99.90;;;;;;2068332;28;20003;-76
2024/03/12 01:38:35;;;;;;;;;;;7.50;99.90;;;;;;2068146;28;19918;-76
2024/03/12 01:39:38;;;;;;;;;;;7.50;99.90;;;;;;2068479;28;19917;-76
2024/03/12 01:40:39;;;;;;;;;;;7.50;99.90;;;;;;2067402;28;19937;-76
2024/03/12 01:41:41;;;;;;;;;;;7.50;99.90;;;;;;2059468;28;20368;-75
2024/03/12 01:42:42;;;;;;;;;;;7.50;99.90;;;;;;2067745;28;20296;-75
2024/03/12 01:43:43;;;;;;;;;;;7.50;99.90;;;;;;2068129;28;19918;-76
2024/03/12 01:44:44;;;;;;;;;;;7.50;99.90;;;;;;2068099;28;19914;-75
2024/03/12 01:45:45;;;;;;;;;;;7.50;99.90;;;;;;2068546;28;19914;-75
2024/03/12 01:46:46;;;;;;;;;;;7.60;99.90;;;;;;2068223;28;19921;-75
2024/03/12 01:47:47;;;;;;;;;;;7.60;99.90;;;;;;2067540;28;19917;-76
2024/03/12 01:48:48;;;;;;;;;;;7.50;99.90;;;;;;2059217;28;19961;-75
2024/03/12 01:49:49;;;;;;;;;;;7.50;99.90;;;;;;2067750;28;20162;-76
2024/03/12 01:50:49;;;;;;;;;;;7.60;99.90;;;;;;2059229;28;19913;-76
2024/03/12 01:51:50;;;;;;;;;;;7.60;99.90;;;;;;2059350;28;19977;-75
2024/03/12 01:52:56;;;;;;;;;;;7.60;99.90;;;;;;2068351;28;20338;-75
2024/03/12 01:53:57;;;;;;;;;;;7.60;99.90;;;;;;2067243;28;19972;-75
2024/03/12 01:54:57;;;;;;;;;;;7.60;99.90;;;;;;2067345;28;19918;-75
2024/03/12 01:55:58;;;;;;;;;;;7.60;99.90;;;;;;2067911;28;20883;-75
2024/03/12 01:56:59;;;;;;;;;;;7.60;99.90;;;;;;2067210;28;19921;-76
2024/03/12 01:58:00;;;;;;;;;;;7.60;99.90;;;;;;2059377;28;19922;-75
2024/03/12 01:59:01;;;;;;;;;;;7.60;99.90;;;;;;2059396;28;19970;-75
2024/03/12 02:00:01;;;;;;;;;;;7.60;99.90;;;;;;2067364;28;20377;-75
2024/03/12 02:01:12;;;;;;;;;;;7.60;99.90;;;;;;2067714;28;20313;-76
2024/03/12 02:02:16;;;;;;;;;;;7.60;99.90;;;;;;2064929;28;20016;-75
2024/03/12 02:03:18;;;;;;;;;;;7.60;99.90;;;;;;2067401;28;19918;-76
2024/03/12 02:04:18;;;;;;;;;;;7.60;99.90;;;;;;2067330;28;20421;-75
2024/03/12 02:05:19;;;;;;;;;;;7.60;99.90;;;;;;2059176;28;19921;-75
2024/03/12 02:06:20;;;;;;;;;;;7.60;99.90;;;;;;2055374;28;20521;-75
2024/03/12 02:07:20;;;;;;;;;;;7.60;99.90;;;;;;2070719;28;20029;-75
2024/03/12 02:08:21;;;;;;;;;;;7.60;99.90;;;;;;2063062;28;20121;-75
2024/03/12 02:09:22;;;;;;;;;;;7.60;99.90;;;;;;2059596;28;20148;-76
2024/03/12 02:10:23;;;;;;;;;;;7.60;99.90;;;;;;2059251;28;19984;-76
2024/03/12 02:11:24;;;;;;;;;;;7.60;99.90;;;;;;2068029;28;20310;-75
2024/03/12 02:12:24;;;;;;;;;;;7.60;99.90;;;;;;2068118;28;20001;-75
2024/03/12 02:13:25;;;;;;;;;;;7.60;99.90;;;;;;2067743;28;19920;-76
2024/03/12 02:14:26;;;;;;;;;;;7.60;99.90;;;;;;2067087;28;20327;-76
2024/03/12 02:15:26;;;;;;;;;;;7.60;99.90;;;;;;2067441;28;19917;-76
2024/03/12 02:16:27;;;;;;;;;;;7.60;99.90;;;;;;2067106;28;19913;-75
2024/03/12 02:17:27;;;;;;;;;;;7.60;99.90;;;;;;2067160;28;20020;-75
2024/03/12 02:18:28;;;;;;;;;;;7.60;99.90;;;;;;2067345;28;20004;-76
2024/03/12 02:19:28;;;;;;;;;;;7.60;99.90;;;;;;2067276;28;20376;-75
2024/03/12 02:20:29;;;;;;;;;;;7.70;99.90;;;;;;2067579;28;19922;-76
2024/03/12 02:21:29;;;;;;;;;;;7.70;99.90;;;;;;2068033;28;20242;-76
2024/03/12 02:22:31;;;;;;;;;;;7.70;99.90;;;;;;2067889;28;20386;-76
2024/03/12 02:23:42;;;;;;;;;;;7.70;99.90;;;;;;2066807;28;20440;-76
2024/03/12 02:24:43;;;;;;;;;;;7.70;99.90;;;;;;2067622;28;19921;-75
2024/03/12 02:25:43;;;;;;;;;;;7.70;99.90;;;;;;2067985;28;19921;-76
2024/03/12 02:26:44;;;;;;;;;;;7.80;99.90;;;;;;2067091;28;19925;-76
2024/03/12 02:27:45;;;;;;;;;;;7.80;99.90;;;;;;2067421;28;20045;-76
2024/03/12 02:28:45;;;;;;;;;;;7.80;99.90;;;;;;2067653;28;20330;-76
2024/03/12 02:29:47;;;;;;;;;;;7.80;99.90;;;;;;2067293;28;19951;-75
2024/03/12 02:30:47;;;;;;;;;;;7.80;99.90;;;;;;2058970;28;20471;-75
2024/03/12 02:31:48;;;;;;;;;;;7.80;99.90;;;;;;2054817;28;19918;-76
2024/03/12 02:32:49;;;;;;;;;;;7.70;99.90;;;;;;2059111;28;19918;-74
2024/03/12 02:33:49;;;;;;;;;;;7.70;99.90;;;;;;2067285;28;19981;-75
2024/03/12 02:34:50;;;;;;;;;;;7.80;99.90;;;;;;2067083;28;20273;-76
2024/03/12 02:35:51;;;;;;;;;;;7.80;99.90;;;;;;2067388;28;20472;-76
2024/03/12 02:36:52;;;;;;;;;;;7.90;99.90;;;;;;2067932;28;19913;-76
2024/03/12 02:37:52;;;;;;;;;;;7.80;99.90;;;;;;2067116;28;19925;-76
2024/03/12 02:38:53;;;;;;;;;;;7.80;99.90;;;;;;2067067;28;19917;-75
2024/03/12 02:39:54;;;;;;;;;;;7.80;99.90;;;;;;2067364;28;19917;-75
2024/03/12 02:40:54;;;;;;;;;;;7.80;99.90;;;;;;2067416;28;20017;-75
2024/03/12 02:41:56;;;;;;;;;;;7.80;99.90;;;;;;2067853;28;20379;-75
2024/03/12 02:42:57;;;;;;;;;;;7.80;99.90;;;;;;2067499;28;20435;-75
2024/03/12 02:43:57;;;;;;;;;;;7.80;99.90;;;;;;2058913;28;19918;-75
2024/03/12 02:44:58;;;;;;;;;;;7.80;99.90;;;;;;2067127;28;20362;-74
2024/03/12 02:45:58;;;;;;;;;;;7.80;99.90;;;;;;2059076;28;19917;-75
2024/03/12 02:46:59;;;;;;;;;;;7.70;99.90;;;;;;2067129;28;19924;-75
2024/03/12 02:47:59;;;;;;;;;;;7.70;99.90;;;;;;2067276;28;19920;-75
2024/03/12 02:49:00;;;;;;;;;;;7.70;99.90;;;;;;2067027;28;19917;-75
2024/03/12 02:50:00;;;;;;;;;;;7.70;99.90;;;;;;2058692;28;19918;-75
2024/03/12 02:51:01;;;;;;;;;;;7.60;99.90;;;;;;2067022;28;20379;-75
2024/03/12 02:52:01;;;;;;;;;;;7.60;99.90;;;;;;2067699;28;20460;-75
2024/03/12 02:53:02;;;;;;;;;;;7.60;99.90;;;;;;2067629;28;19960;-75
2024/03/12 02:54:04;;;;;;;;;;;7.50;99.90;;;;;;2067224;28;20470;-75
2024/03/12 02:55:06;;;;;;;;;;;7.50;99.90;;;;;;2067057;28;20442;-75
2024/03/12 02:56:06;;;;;;;;;;;7.50;99.90;;;;;;2067671;28;19940;-75
2024/03/12 02:57:08;;;;;;;;;;;7.40;99.90;;;;;;2067183;28;19918;-75
2024/03/12 02:58:09;;;;;;;;;;;7.40;99.90;;;;;;2066964;28;19917;-75
2024/03/12 02:59:12;;;;;;;;;;;7.40;99.90;;;;;;2067029;28;19917;-75
2024/03/12 03:00:12;;;;;;;;;;;7.40;99.90;;;;;;2067348;28;19967;-75
2024/03/12 03:01:15;;;;;;;;;;;7.40;99.90;;;;;;2066839;28;19955;-75
2024/03/12 03:02:15;;;;;;;;;;;7.40;99.90;;;;;;2067074;28;19924;-75
2024/03/12 03:03:16;;;;;;;;;;;7.30;99.90;;;;;;2058828;28;19940;-75
2024/03/12 03:04:17;;;;;;;;;;;7.30;99.90;;;;;;2050782;28;20312;-75
2024/03/12 03:05:17;;;;;;;;;;;7.30;99.90;;;;;;2057571;28;19929;-75
2024/03/12 03:06:18;;;;;;;;;;;7.30;99.90;;;;;;2067065;28;20475;-75
2024/03/12 03:07:19;;;;;;;;;;;7.30;99.90;;;;;;2058843;28;19933;-75
2024/03/12 03:08:19;;;;;;;;;;;7.30;99.90;;;;;;2067018;28;20330;-75
2024/03/12 03:09:21;;;;;;;;;;;7.30;99.90;;;;;;2066800;28;19917;-76
2024/03/12 03:10:21;;;;;;;;;;;7.30;99.90;;;;;;2066719;28;20406;-75
2024/03/12 03:11:22;;;;;;;;;;;7.30;99.90;;;;;;2067130;28;19979;-75
2024/03/12 03:12:22;;;;;;;;;;;7.20;99.90;;;;;;2066905;28;19917;-75
2024/03/12 03:13:23;;;;;;;;;;;7.20;99.90;;;;;;2058852;28;19924;-75
2024/03/12 03:14:23;;;;;;;;;;;7.20;99.90;;;;;;2058963;28;19956;-75
2024/03/12 03:15:24;;;;;;;;;;;7.20;99.90;;;;;;2050821;28;20385;-75
2024/03/12 03:16:24;;;;;;;;;;;7.20;99.90;;;;;;2058763;28;19925;-75
2024/03/12 03:17:24;;;;;;;;;;;7.20;99.90;;;;;;2075129;28;20275;-75
2024/03/12 03:18:27;;;;;;;;;;;7.20;99.90;;;;;;2075157;28;19921;-75
2024/03/12 03:19:27;;;;;;;;;;;7.20;99.90;;;;;;2067366;28;20323;-75
2024/03/12 03:20:28;;;;;;;;;;;7.20;99.90;;;;;;2067587;28;19925;-75
2024/03/12 03:21:29;;;;;;;;;;;7.20;99.90;;;;;;2067539;28;19917;-75
2024/03/12 03:22:29;;;;;;;;;;;7.20;99.90;;;;;;2066883;28;19917;-75
2024/03/12 03:23:30;;;;;;;;;;;7.30;99.90;;;;;;2067081;28;19914;-74
2024/03/12 03:24:30;;;;;;;;;;;7.20;99.90;;;;;;2066700;28;20003;-75
2024/03/12 03:25:31;;;;;;;;;;;7.20;99.90;;;;;;2067078;28;20361;-75
2024/03/12 03:26:31;;;;;;;;;;;7.20;99.90;;;;;;2075256;28;19913;-75
2024/03/12 03:27:33;;;;;;;;;;;7.20;99.90;;;;;;2066695;28;19928;-75
2024/03/12 03:28:33;;;;;;;;;;;7.20;99.90;;;;;;2066948;28;19917;-75
2024/03/12 03:29:35;;;;;;;;;;;7.10;99.90;;;;;;2067722;28;19967;-75
2024/03/12 03:30:35;;;;;;;;;;;7.10;99.90;;;;;;2067257;28;19913;-75
2024/03/12 03:31:36;;;;;;;;;;;7.10;99.90;;;;;;2065369;28;19941;-75
2024/03/12 03:32:36;;;;;;;;;;;7.10;99.90;;;;;;2067122;28;19918;-76
2024/03/12 03:33:37;;;;;;;;;;;7.10;99.90;;;;;;2058828;28;19966;-75
2024/03/12 03:34:38;;;;;;;;;;;7.10;99.90;;;;;;2067056;28;19913;-75
2024/03/12 03:35:38;;;;;;;;;;;7.10;99.90;;;;;;2067970;28;19914;-75
2024/03/12 03:36:39;;;;;;;;;;;7.10;99.90;;;;;;2068364;28;20303;-75
2024/03/12 03:37:41;;;;;;;;;;;7.10;99.90;;;;;;2068585;28;19929;-75
2024/03/12 03:38:42;;;;;;;;;;;7.10;99.90;;;;;;2069272;28;20343;-75
2024/03/12 03:39:42;;;;;;;;;;;7.10;99.90;;;;;;2069054;28;20011;-76
2024/03/12 03:40:43;;;;;;;;;;;7.10;99.90;;;;;;2069304;28;19952;-80
2024/03/12 03:41:43;;;;;;;;;;;7.10;99.90;;;;;;2064240;28;19921;-81
2024/03/12 03:42:44;;;;;;;;;;;7.10;99.90;;;;;;2061082;28;19922;-81
2024/03/12 03:43:44;;;;;;;;;;;7.00;99.90;;;;;;2057282;28;19914;-80
2024/03/12 03:44:45;;;;;;;;;;;7.00;99.90;;;;;;2048146;28;19914;-79
2024/03/12 03:45:45;;;;;;;;;;;7.00;99.90;;;;;;2052245;28;20233;-80
2024/03/12 03:46:46;;;;;;;;;;;7.00;99.90;;;;;;2060720;28;19917;-81
2024/03/12 03:47:46;;;;;;;;;;;7.00;99.90;;;;;;2060841;28;19944;-80
2024/03/12 03:48:47;;;;;;;;;;;7.00;99.90;;;;;;2060775;28;19997;-81
2024/03/12 03:49:48;;;;;;;;;;;7.00;99.90;;;;;;2068903;28;19929;-80
2024/03/12 03:50:48;;;;;;;;;;;7.00;99.90;;;;;;2063827;28;19924;-81
2024/03/12 03:51:50;;;;;;;;;;;7.00;99.90;;;;;;2061935;28;19964;-81
2024/03/12 03:52:52;;;;;;;;;;;7.00;99.90;;;;;;2066273;28;20118;-81
2024/03/12 03:53:53;;;;;;;;;;;7.00;99.90;;;;;;2068649;28;19940;-81
2024/03/12 03:54:53;;;;;;;;;;;7.00;99.90;;;;;;2068631;28;20144;-82
2024/03/12 03:55:54;;;;;;;;;;;7.10;99.90;;;;;;2068196;28;19925;-81
2024/03/12 03:56:55;;;;;;;;;;;7.10;99.90;;;;;;2068533;28;20498;-81
2024/03/12 03:57:55;;;;;;;;;;;7.10;99.90;;;;;;2060692;28;19957;-81
2024/03/12 03:59:00;;;;;;;;;;;7.10;99.90;;;;;;2068545;28;19957;-81
2024/03/12 04:00:12;;;;;;;;;;;7.10;99.90;;;;;;2061069;28;19937;-81
2024/03/12 04:01:13;;;;;;;;;;;7.10;99.90;;;;;;2053734;28;19918;-80
2024/03/12 04:02:14;;;;;;;;;;;7.10;99.90;;;;;;2044559;28;19958;-79
2024/03/12 04:03:14;;;;;;;;;;;7.10;99.90;;;;;;2052525;28;19966;-80
2024/03/12 04:04:15;;;;;;;;;;;7.10;99.90;;;;;;2068662;28;19922;-83
2024/03/12 04:05:16;;;;;;;;;;;7.10;99.90;;;;;;2068552;28;19913;-81
2024/03/12 04:06:20;;;;;;;;;;;7.00;99.90;;;;;;2068336;28;20374;-80
2024/03/12 04:07:21;;;;;;;;;;;7.10;99.90;;;;;;2061258;28;19940;-80
2024/03/12 04:08:22;;;;;;;;;;;7.10;99.90;;;;;;2063481;28;19928;-81
2024/03/12 04:09:25;;;;;;;;;;;7.10;99.90;;;;;;2068534;28;19948;-80
2024/03/12 04:10:26;;;;;;;;;;;7.10;99.90;;;;;;2060395;28;19921;-80
2024/03/12 04:11:26;;;;;;;;;;;7.00;99.90;;;;;;2060390;28;20349;-80
2024/03/12 04:12:27;;;;;;;;;;;7.10;99.90;;;;;;2068701;28;19968;-81
2024/03/12 04:13:27;;;;;;;;;;;7.10;99.90;;;;;;2069119;28;19917;-80
2024/03/12 04:14:28;;;;;;;;;;;7.10;99.90;;;;;;2069059;28;19918;-80
2024/03/12 04:15:28;;;;;;;;;;;7.10;99.90;;;;;;2068123;28;19925;-80
2024/03/12 04:16:31;;;;;;;;;;;7.10;99.90;;;;;;2068610;28;20342;-80
2024/03/12 04:17:32;;;;;;;;;;;7.10;99.90;;;;;;2068237;28;19963;-80
2024/03/12 04:18:33;;;;;;;;;;;7.10;99.90;;;;;;2060189;28;20458;-80
2024/03/12 04:19:35;;;;;;;;;;;7.10;99.90;;;;;;2060357;28;19921;-81
2024/03/12 04:20:35;;;;;;;;;;;7.10;99.90;;;;;;2052303;28;20203;-81
2024/03/12 04:21:37;;;;;;;;;;;7.10;99.90;;;;;;2052104;28;20136;-81
2024/03/12 04:22:38;;;;;;;;;;;7.10;99.90;;;;;;2052249;28;20300;-81
2024/03/12 04:23:39;;;;;;;;;;;7.10;99.90;;;;;;2060111;28;19929;-80
2024/03/12 04:24:39;;;;;;;;;;;7.20;99.90;;;;;;2060253;28;19928;-81
2024/03/12 04:25:40;;;;;;;;;;;7.10;99.90;;;;;;2060122;28;20006;-81
2024/03/12 04:26:41;;;;;;;;;;;7.10;99.90;;;;;;2060336;28;20335;-81
2024/03/12 04:27:41;;;;;;;;;;;7.10;99.90;;;;;;2068355;28;19917;-80
2024/03/12 04:28:42;;;;;;;;;;;7.10;99.90;;;;;;2060249;28;20355;-81
2024/03/12 04:29:43;;;;;;;;;;;7.20;99.90;;;;;;2064157;28;19925;-81
2024/03/12 04:30:43;;;;;;;;;;;7.10;99.90;;;;;;2059849;28;19918;-81
2024/03/12 04:31:44;;;;;;;;;;;7.10;99.90;;;;;;2057210;28;19926;-81
2024/03/12 04:32:46;;;;;;;;;;;7.10;99.90;;;;;;2059129;28;19920;-80
2024/03/12 04:33:47;;;;;;;;;;;7.10;99.90;;;;;;2067932;28;20020;-80
2024/03/12 04:34:48;;;;;;;;;;;7.20;99.90;;;;;;2067947;28;20383;-80
2024/03/12 04:35:48;;;;;;;;;;;7.20;99.90;;;;;;2059947;28;20333;-80
2024/03/12 04:36:49;;;;;;;;;;;7.10;99.90;;;;;;2059871;28;20386;-80
2024/03/12 04:37:50;;;;;;;;;;;7.20;99.90;;;;;;2052231;28;19918;-81
2024/03/12 04:38:51;;;;;;;;;;;7.20;99.90;;;;;;2067666;28;19925;-80
2024/03/12 04:39:51;;;;;;;;;;;7.20;99.90;;;;;;2051956;28;19984;-80
2024/03/12 04:40:52;;;;;;;;;;;7.20;99.90;;;;;;2052087;28;19996;-81
2024/03/12 04:41:53;;;;;;;;;;;7.10;99.90;;;;;;2068280;28;19940;-81
2024/03/12 04:42:54;;;;;;;;;;;7.10;99.90;;;;;;2068214;28;19913;-79
2024/03/12 04:43:54;;;;;;;;;;;7.10;99.90;;;;;;2063804;28;20498;-80
2024/03/12 04:44:56;;;;;;;;;;;7.10;99.90;;;;;;2052221;28;19960;-80
2024/03/12 04:45:56;;;;;;;;;;;7.10;99.90;;;;;;2059421;28;20395;-80
2024/03/12 04:46:57;;;;;;;;;;;7.10;99.90;;;;;;2052227;28;19986;-80
2024/03/12 04:47:57;;;;;;;;;;;7.10;99.90;;;;;;2068440;28;20472;-82
2024/03/12 04:48:58;;;;;;;;;;;7.10;99.90;;;;;;2059996;28;19949;-80
2024/03/12 04:49:58;;;;;;;;;;;7.10;99.90;;;;;;2052163;28;19961;-82
2024/03/12 04:50:59;;;;;;;;;;;7.10;99.90;;;;;;2060280;28;20305;-82
2024/03/12 04:52:00;;;;;;;;;;;7.10;99.90;;;;;;2056736;28;20427;-80
2024/03/12 04:53:00;;;;;;;;;;;7.10;99.90;;;;;;2056547;28;19914;-81
2024/03/12 04:54:01;;;;;;;;;;;7.10;99.90;;;;;;2064470;28;19913;-80
2024/03/12 04:55:01;;;;;;;;;;;7.10;99.90;;;;;;2057013;28;20372;-81
2024/03/12 04:56:02;;;;;;;;;;;7.10;99.90;;;;;;2058144;28;20016;-82
2024/03/12 04:57:02;;;;;;;;;;;7.10;99.90;;;;;;2059779;28;19918;-82
2024/03/12 04:58:04;;;;;;;;;;;7.20;99.90;;;;;;2059029;28;19957;-81
2024/03/12 04:59:04;;;;;;;;;;;7.20;99.90;;;;;;2067966;28;20433;-81
2024/03/12 05:00:13;;;;;;;;;;;7.20;99.90;;;;;;2068658;28;19969;-82
2024/03/12 05:01:13;;;;;;;;;;;7.20;99.90;;;;;;2068062;28;19918;-80
2024/03/12 05:02:15;;;;;;;;;;;7.20;99.90;;;;;;2059371;28;20023;-79
2024/03/12 05:03:15;;;;;;;;;;;7.20;99.90;;;;;;2067203;28;19913;-80
2024/03/12 05:04:16;;;;;;;;;;;7.20;99.90;;;;;;2051564;28;20396;-78
2024/03/12 05:05:19;;;;;;;;;;;7.20;99.90;;;;;;2051441;28;19926;-79
2024/03/12 05:06:20;;;;;;;;;;;7.30;99.90;;;;;;2043878;28;19929;-79
2024/03/12 05:07:20;;;;;;;;;;;7.20;99.90;;;;;;2051414;28;20431;-79
2024/03/12 05:08:21;;;;;;;;;;;7.20;99.90;;;;;;2059599;28;19922;-79
2024/03/12 05:09:23;;;;;;;;;;;7.20;99.90;;;;;;2057434;28;19918;-79
2024/03/12 05:10:25;;;;;;;;;;;7.20;99.90;;;;;;2049776;28;19925;-80
2024/03/12 05:11:25;;;;;;;;;;;7.20;99.90;;;;;;2051848;28;19917;-78
2024/03/12 05:12:26;;;;;;;;;;;7.30;99.90;;;;;;2065501;28;19921;-80
2024/03/12 05:13:27;;;;;;;;;;;7.30;99.90;;;;;;2051943;28;19928;-80
2024/03/12 05:14:27;;;;;;;;;;;7.30;99.90;;;;;;2059992;28;19953;-81
2024/03/12 05:15:28;;;;;;;;;;;7.30;99.90;;;;;;2056729;28;19928;-80
2024/03/12 05:16:29;;;;;;;;;;;7.30;99.90;;;;;;2060215;28;19914;-81
2024/03/12 05:17:30;;;;;;;;;;;7.30;99.90;;;;;;2060322;28;19918;-80
2024/03/12 05:18:31;;;;;;;;;;;7.30;99.90;;;;;;2064000;28;20618;-80
2024/03/12 05:19:31;;;;;;;;;;;7.30;99.90;;;;;;2063840;28;19965;-81
2024/03/12 05:20:36;;;;;;;;;;;7.30;99.90;;;;;;2060005;28;19937;-81
2024/03/12 05:21:37;;;;;;;;;;;7.30;99.90;;;;;;2052909;28;19964;-81
2024/03/12 05:22:38;;;;;;;;;;;7.30;99.90;;;;;;2052122;28;19918;-81
2024/03/12 05:23:39;;;;;;;;;;;7.30;99.90;;;;;;2060110;28;20377;-81
2024/03/12 05:24:40;;;;;;;;;;;7.40;99.90;;;;;;2052930;28;20407;-82
2024/03/12 05:25:42;;;;;;;;;;;7.40;99.90;;;;;;2053041;28;20396;-82
2024/03/12 05:26:45;;;;;;;;;;;7.40;99.90;;;;;;2068704;28;20319;-81
2024/03/12 05:27:47;;;;;;;;;;;7.40;99.90;;;;;;2064715;28;19941;-81
2024/03/12 05:28:48;;;;;;;;;;;7.40;99.90;;;;;;2052006;28;21075;-81
2024/03/12 05:29:53;;;;;;;;;;;7.40;99.90;;;;;;2067827;28;19919;-81
2024/03/12 05:30:56;;;;;;;;;;;7.40;99.90;;;;;;2067436;28;19914;-81
2024/03/12 05:31:57;;;;;;;;;;;7.40;99.90;;;;;;2065554;28;19918;-80
2024/03/12 05:33:03;;;;;;;;;;;7.40;99.90;;;;;;2051652;28;20002;-79
2024/03/12 05:34:16;;;;;;;;;;;7.30;99.90;;;;;;2061126;28;19914;-81
2024/03/12 05:35:18;;;;;;;;;;;7.30;99.90;;;;;;2067682;28;20459;-81
2024/03/12 05:36:24;;;;;;;;;;;7.30;99.90;;;;;;2068136;28;19914;-82
2024/03/12 05:37:41;;;;;;;;;;;7.40;99.90;;;;;;2067655;28;20382;-82
2024/03/12 05:38:54;;;;;;;;;;;7.40;99.90;;;;;;2065105;28;19924;-84
2024/03/12 05:40:13;;;;;;;;;;;7.30;99.90;;;;;;2068693;28;19921;-83
2024/03/12 05:48:49;;;;;;;;;;;7.40;99.90;;;;;;2061518;28;19924;-84
2024/03/12 05:49:50;;;;;;;;;;;7.40;99.90;;;;;;2067890;28;20142;-84
2024/03/12 05:50:51;;;;;;;;;;;7.40;99.90;;;;;;2067578;28;19943;-83
2024/03/12 05:51:52;;;;;;;;;;;7.40;99.90;;;;;;2062259;28;20162;-84
2024/03/12 05:52:54;;;;;;;;;;;7.40;99.90;;;;;;2058090;28;19914;-83
2024/03/12 05:53:54;;;;;;;;;;;7.40;99.90;;;;;;2059900;28;19918;-85
2024/03/12 05:54:54;;;;;;;;;;;7.40;99.90;;;;;;2060581;28;19918;-86
2024/03/12 05:55:55;;;;;;;;;;;7.40;99.90;;;;;;2067120;28;19983;-85
2024/03/12 05:56:56;;;;;;;;;;;7.40;99.90;;;;;;2060385;28;19910;-84
2024/03/12 05:57:56;;;;;;;;;;;7.50;99.90;;;;;;2058641;28;19918;-85
2024/03/12 05:58:58;;;;;;;;;;;7.50;99.90;;;;;;2059083;28;19924;-84
2024/03/12 05:59:58;;;;;;;;;;;7.50;99.90;;;;;;2060646;28;19933;-83
2024/03/12 06:00:59;;;;;;;;;;;7.50;99.90;;;;;;2051546;28;19922;-83
2024/03/12 06:01:59;;;;;;;;;;;7.50;99.90;;;;;;2059970;28;19922;-84
2024/03/12 06:03:00;;;;;;;;;;;7.50;99.90;;;;;;2067388;28;19948;-82
2024/03/12 06:04:02;;;;;;;;;;;7.50;99.90;;;;;;2067930;28;19909;-82
2024/03/12 06:05:03;;;;;;;;;;;7.50;99.90;;;;;;2052797;28;19945;-82
2024/03/12 06:06:04;;;;;;;;;;;7.50;99.90;;;;;;2053280;28;19921;-83
2024/03/12 06:07:04;;;;;;;;;;;7.50;99.90;;;;;;2061163;28;20248;-81
2024/03/12 06:08:05;;;;;;;;;;;7.60;99.90;;;;;;2050160;28;19926;-81
2024/03/12 06:09:09;;;;;;;;;;;7.60;99.90;;;;;;2060856;28;19918;-77
2024/03/12 06:10:10;;;;;;;;;;;7.60;99.90;;;;;;2072762;28;19930;-82